Terminal Aerodrome Forecast
Issued by NWS Omaha/Valley, NE

Home | Current Version | Previous Version | Text Only | Print | Product List | Glossary Off
Versions: 1 2 3 4 5 6 7 8 9 10 11 12 13 14 15 16 17 18 19 20 21 22 23

000
FTUS43 KOAX 211120
TAFOFK
TAF
KOFK 211120Z 2112/2212 15005KT P6SM SKC
     FM211600 16010KT P6SM SKC
     FM211900 17014G21KT P6SM FEW250
     FM220000 15012KT P6SM SCT250
     FM220600 15012KT P6SM BKN035=

USA.gov is the U.S. government's official web portal to all federal, state and local government web resources and services.